Time;durP1;ratioP1;P1;durP2;ratioP2;P2;SDS_P1;SDS_P2;PMS_P1;PMS_P2;Temp;Humidity;BMP_temperature;BMP_pressure;BME280_temperature;BME280_humidity;BME280_pressure;Samples;Min_cycle;Max_cycle;Signal;HPM_P1;HPM_P2
2023/05/16 00:00:58;;;;;;;16.02;0.95;;;;;;;7.49;46.15;101620.16;5069513;28;20038;-70
2023/05/16 00:03:23;;;;;;;9.02;0.90;;;;;;;7.92;45.98;101617.72;5082673;28;20162;-71
2023/05/16 00:05:49;;;;;;;16.67;0.70;;;;;;;7.80;46.50;101614.47;5081788;27;20529;-71
2023/05/16 00:08:15;;;;;;;14.65;0.47;;;;;;;7.61;47.36;101617.38;5080605;27;20783;-70
2023/05/16 00:10:41;;;;;;;7.88;1.02;;;;;;;7.65;48.75;101620.78;5079864;27;20027;-70
2023/05/16 00:13:06;;;;;;;8.07;1.27;;;;;;;7.60;49.21;101618.28;5083988;27;20040;-70
2023/05/16 00:15:32;;;;;;;16.83;1.35;;;;;;;7.49;50.23;101620.16;5085476;27;20084;-71
2023/05/16 00:17:58;;;;;;;20.63;1.65;;;;;;;7.59;49.62;101626.94;5080505;27;20059;-70
2023/05/16 00:20:26;;;;;;;11.75;0.70;;;;;;;7.81;49.33;101627.47;5081347;27;20024;-73
2023/05/16 00:22:52;;;;;;;15.90;3.03;;;;;;;7.73;49.20;101632.81;5080247;27;20645;-69
2023/05/16 00:25:18;;;;;;;11.75;1.65;;;;;;;7.39;49.42;101629.81;5084246;27;20035;-73
2023/05/16 00:27:43;;;;;;;11.10;0.65;;;;;;;7.20;49.89;101626.63;5077671;27;20043;-70
2023/05/16 00:30:09;;;;;;;9.88;0.68;;;;;;;7.21;49.30;101630.06;5083336;27;20027;-71
2023/05/16 00:32:35;;;;;;;20.23;0.98;;;;;;;6.78;49.94;101639.28;5067197;27;20042;-69
2023/05/16 00:35:01;;;;;;;6.38;0.50;;;;;;;6.80;49.80;101629.75;5086283;27;20039;-71
2023/05/16 00:37:27;;;;;;;8.70;0.73;;;;;;;7.12;49.46;101625.84;5080148;27;20051;-73
2023/05/16 00:39:52;;;;;;;8.05;0.63;;;;;;;6.84;49.88;101631.44;5082651;27;22153;-71
2023/05/16 00:42:19;;;;;;;16.05;1.02;;;;;;;6.40;50.63;101630.19;5080794;27;20032;-71
2023/05/16 00:44:45;;;;;;;13.15;0.57;;;;;;;6.77;49.57;101640.16;5079657;28;20663;-70
2023/05/16 00:47:10;;;;;;;15.70;0.70;;;;;;;6.85;49.31;101637.47;5083661;27;20039;-70
2023/05/16 00:49:36;;;;;;;11.55;1.65;;;;;;;6.38;49.21;101638.88;5078605;27;20080;-70
2023/05/16 00:52:03;;;;;;;10.20;0.50;;;;;;;6.48;48.91;101645.66;5080406;28;20719;-72
2023/05/16 00:54:29;;;;;;;11.00;1.42;;;;;;;6.67;48.98;101633.34;5066690;28;20032;-72
2023/05/16 00:56:55;;;;;;;8.45;1.08;;;;;;;6.22;50.23;101636.38;5083527;27;20035;-71
2023/05/16 00:59:22;;;;;;;9.15;0.93;;;;;;;6.56;49.51;101640.41;5084937;27;20035;-71
2023/05/16 01:01:50;;;;;;;11.45;1.48;;;;;;;6.68;49.13;101640.25;5092495;27;20032;-71
2023/05/16 01:04:17;;;;;;;8.82;0.75;;;;;;;6.53;49.46;101632.63;5082497;28;20396;-72
2023/05/16 01:06:44;;;;;;;10.98;0.65;;;;;;;6.15;50.37;101644.22;5077958;27;20043;-71
2023/05/16 01:09:11;;;;;;;9.52;0.60;;;;;;;6.68;49.01;101637.66;5085665;27;20512;-70
2023/05/16 01:11:55;;;;;;;8.77;0.57;;;;;;;6.45;49.05;101635.31;5074024;27;20622;-72
2023/05/16 01:14:39;;;;;;;12.50;0.77;;;;;;;6.50;49.23;101631.78;5081588;27;20380;-72
2023/05/16 01:17:37;;;;;;;5.78;0.45;;;;;;;6.37;49.20;101631.94;5081316;27;20036;-72
2023/05/16 01:20:16;;;;;;;7.60;0.60;;;;;;;6.66;48.67;101632.50;5097688;27;20162;-71
2023/05/16 01:22:46;;;;;;;14.38;0.73;;;;;;;6.62;48.77;101632.53;5077269;28;20054;-72
2023/05/16 01:25:34;;;;;;;11.43;0.80;;;;;;;6.36;49.43;101635.44;5082297;27;20353;-71
2023/05/16 01:28:01;;;;;;;13.52;0.77;;;;;;;6.38;49.08;101631.94;5080878;28;20040;-72
2023/05/16 01:30:32;;;;;;;15.77;1.20;;;;;;;6.41;48.76;101634.47;5081435;28;20028;-73
2023/05/16 01:32:58;;;;;;;7.53;0.45;;;;;;;6.38;48.89;101637.13;5068844;28;20055;-72
2023/05/16 01:35:24;;;;;;;11.98;0.70;;;;;;;6.12;49.26;101639.09;5077655;28;20468;-72
2023/05/16 01:38:10;;;;;;;8.00;0.47;;;;;;;6.27;49.00;101644.13;5082783;28;20699;-70
2023/05/16 01:40:58;;;;;;;14.35;0.50;;;;;;;6.39;49.08;101632.78;5076450;28;20054;-70
2023/05/16 01:43:44;;;;;;;4.63;0.40;;;;;;;6.59;48.38;101640.38;5098583;27;20039;-71
2023/05/16 01:46:14;;;;;;;14.90;0.40;;;;;;;6.44;48.57;101631.00;5084694;28;20031;-70
2023/05/16 01:48:52;;;;;;;9.05;0.25;;;;;;;6.43;48.42;101637.06;5081498;27;20035;-71
2023/05/16 01:51:21;;;;;;;6.35;1.33;;;;;;;6.32;48.07;101644.13;5060101;28;20036;-72
2023/05/16 01:53:49;;;;;;;10.20;1.02;;;;;;;6.01;49.13;101650.41;5075826;28;20071;-72
2023/05/16 01:56:16;;;;;;;8.25;1.02;;;;;;;6.19;48.59;101643.34;5077316;27;20043;-71
2023/05/16 01:58:43;;;;;;;8.65;0.90;;;;;;;6.20;48.62;101650.25;5081271;28;20048;-69
2023/05/16 02:01:10;;;;;;;10.38;0.70;;;;;;;5.90;49.32;101649.63;5097795;27;20357;-71
2023/05/16 02:03:36;;;;;;;16.85;0.80;;;;;;;6.23;48.34;101650.22;5078080;28;20035;-72
2023/05/16 02:06:02;;;;;;;12.93;0.50;;;;;;;6.29;48.24;101645.00;5082168;28;20031;-71
2023/05/16 02:08:28;;;;;;;6.45;0.63;;;;;;;6.22;48.65;101648.53;5082536;28;20428;-71
2023/05/16 02:10:53;;;;;;;9.98;0.85;;;;;;;6.04;48.85;101652.13;5065941;28;20044;-72
2023/05/16 02:13:19;;;;;;;11.15;0.95;;;;;;;6.17;48.92;101645.09;5080786;28;20075;-72
2023/05/16 02:15:45;;;;;;;7.18;0.77;;;;;;;5.98;49.20;101647.00;5079892;28;20035;-72
2023/05/16 02:18:11;;;;;;;17.08;1.00;;;;;;;6.03;48.95;101640.88;5081134;28;20036;-72
2023/05/16 02:20:36;;;;;;;11.27;1.02;;;;;;;5.91;49.31;101645.31;5079319;28;20032;-72
2023/05/16 02:23:02;;;;;;;7.82;0.50;;;;;;;5.86;49.62;101642.78;5079206;28;20040;-71
2023/05/16 02:25:28;;;;;;;8.02;0.60;;;;;;;5.82;49.34;101647.13;5085028;28;20481;-72
2023/05/16 02:27:53;;;;;;;6.78;0.57;;;;;;;5.85;49.62;101646.22;5084183;28;20096;-71
2023/05/16 02:30:19;;;;;;;9.85;0.93;;;;;;;5.98;49.26;101653.03;5101960;27;20416;-72
2023/05/16 02:32:44;;;;;;;3.83;0.55;;;;;;;6.04;48.92;101647.81;5075418;28;20074;-70
2023/05/16 02:35:10;;;;;;;7.18;1.20;;;;;;;6.01;49.19;101646.94;5082459;28;20028;-72
2023/05/16 02:37:36;;;;;;;15.75;0.80;;;;;;;5.82;49.39;101648.84;5078393;28;20496;-71
2023/05/16 02:40:04;;;;;;;3.47;1.20;;;;;;;5.79;49.42;101643.66;5096014;27;20050;-72
2023/05/16 02:42:30;;;;;;;3.50;0.43;;;;;;;5.93;49.40;101649.63;5063529;27;20066;-71
2023/05/16 02:44:56;;;;;;;7.22;1.95;;;;;;;5.55;49.91;101644.72;5086012;27;20028;-71
2023/05/16 02:47:23;;;;;;;14.43;0.60;;;;;;;5.80;49.43;101648.84;5102508;27;20035;-71
2023/05/16 02:49:48;;;;;;;10.73;0.90;;;;;;;5.67;49.60;101648.06;5068867;27;20031;-72
2023/05/16 02:52:14;;;;;;;6.95;1.00;;;;;;;5.80;48.87;101642.81;5086680;27;20484;-71
2023/05/16 02:54:39;;;;;;;9.20;0.63;;;;;;;5.80;49.06;101653.19;5082887;27;20042;-71
2023/05/16 02:57:05;;;;;;;5.80;0.50;;;;;;;6.09;48.00;101651.22;5081226;27;20066;-72
2023/05/16 02:59:30;;;;;;;5.55;0.57;;;;;;;6.00;48.13;101653.03;5084990;27;20028;-72
2023/05/16 03:01:56;;;;;;;9.93;0.55;;;;;;;5.71;48.43;101646.34;5081557;27;20054;-71
2023/05/16 03:04:22;;;;;;;3.78;0.73;;;;;;;5.81;48.59;101649.72;5068499;27;20040;-71
2023/05/16 03:06:49;;;;;;;9.15;0.75;;;;;;;5.94;47.98;101650.47;5085352;27;20662;-72
2023/05/16 03:09:16;;;;;;;11.50;0.80;;;;;;;6.00;48.43;101650.44;5083296;27;20032;-72
2023/05/16 03:11:42;;;;;;;7.47;0.95;;;;;;;5.95;48.40;101658.25;5088267;27;20051;-71
2023/05/16 03:14:08;;;;;;;8.40;0.85;;;;;;;5.96;48.56;101654.78;5083022;27;20572;-72
2023/05/16 03:16:35;;;;;;;14.07;0.70;;;;;;;6.12;48.17;101665.03;5086115;27;20039;-72
2023/05/16 03:19:01;;;;;;;15.55;1.02;;;;;;;6.19;48.62;101664.09;5069742;28;20068;-71
2023/05/16 03:21:26;;;;;;;9.43;0.90;;;;;;;6.29;48.08;101664.03;5082218;27;20111;-70
2023/05/16 03:23:53;;;;;;;14.35;1.05;;;;;;;5.83;49.64;101663.53;5079800;27;20039;-71
2023/05/16 03:26:20;;;;;;;11.27;0.68;;;;;;;6.16;48.78;101669.34;5083907;27;20032;-72
2023/05/16 03:28:48;;;;;;;10.18;0.60;;;;;;;6.00;48.58;101677.25;5067891;28;20036;-72
2023/05/16 03:31:14;;;;;;;8.40;1.17;;;;;;;5.87;49.03;101675.63;5086456;27;20096;-72
2023/05/16 03:33:39;;;;;;;8.75;0.60;;;;;;;6.05;48.38;101675.47;5066526;28;20507;-72
2023/05/16 03:36:05;;;;;;;8.95;0.50;;;;;;;5.94;48.42;101672.09;5085264;27;20132;-71
2023/05/16 03:38:31;;;;;;;14.52;1.90;;;;;;;6.02;48.41;101677.25;5069568;28;20468;-71
2023/05/16 03:40:57;;;;;;;5.95;0.65;;;;;;;6.17;47.76;101679.72;5083740;27;20024;-71
2023/05/16 03:43:23;;;;;;;11.60;1.00;;;;;;;6.22;48.22;101671.88;5083309;27;20333;-70
2023/05/16 03:45:48;;;;;;;7.40;0.50;;;;;;;6.61;47.39;101672.38;5082022;27;20072;-71
2023/05/16 03:48:14;;;;;;;4.93;0.30;;;;;;;6.48;47.25;101674.25;5084796;28;20131;-71
2023/05/16 03:50:39;;;;;;;8.95;0.75;;;;;;;6.46;47.19;101674.28;5071582;27;20503;-69
2023/05/16 03:53:04;;;;;;;7.70;0.50;;;;;;;6.40;47.34;101671.72;5084177;27;22288;-72
2023/05/16 03:55:30;;;;;;;9.88;1.77;;;;;;;6.64;47.12;101678.41;5084843;27;20492;-71
2023/05/16 03:57:56;;;;;;;5.07;1.02;;;;;;;6.40;47.71;101674.31;5083424;28;20044;-71
2023/05/16 04:00:21;;;;;;;9.68;0.63;;;;;;;6.45;47.70;101680.31;5085822;27;20036;-70
2023/05/16 04:02:47;;;;;;;5.10;0.43;;;;;;;6.28;47.89;101688.28;5086941;27;20048;-71
2023/05/16 04:05:12;;;;;;;3.80;1.08;;;;;;;5.89;48.66;101692.03;5084733;27;20160;-71
2023/05/16 04:07:39;;;;;;;7.93;0.50;;;;;;;6.17;47.68;101694.41;5081522;27;20109;-71
2023/05/16 04:10:05;;;;;;;13.05;0.88;;;;;;;6.13;47.46;101696.19;5083393;27;20066;-72
2023/05/16 04:12:30;;;;;;;6.10;0.35;;;;;;;6.24;47.07;101691.75;5082306;27;20123;-72
2023/05/16 04:14:56;;;;;;;3.10;1.25;;;;;;;6.18;47.09;101693.53;5081366;27;20488;-72
2023/05/16 04:17:22;;;;;;;13.10;1.67;;;;;;;6.33;47.28;101690.84;5084043;27;20039;-72
2023/05/16 04:19:47;;;;;;;3.08;0.50;;;;;;;6.37;47.07;101689.06;5084655;27;20109;-71
2023/05/16 04:22:13;;;;;;;4.57;1.00;;;;;;;6.37;47.24;101696.84;5078745;27;20089;-72
2023/05/16 04:24:38;;;;;;;7.18;0.55;;;;;;;6.40;47.14;101691.66;5080106;27;20035;-70
2023/05/16 04:27:05;;;;;;;6.18;0.50;;;;;;;6.64;47.13;101691.41;5082751;27;20043;-72
2023/05/16 04:29:31;;;;;;;8.10;0.98;;;;;;;6.77;46.58;101694.72;5082283;27;20058;-71
2023/05/16 04:31:56;;;;;;;5.40;0.50;;;;;;;6.86;46.46;101692.03;5082169;27;20127;-71
2023/05/16 04:34:26;;;;;;;5.95;0.65;;;;;;;6.73;46.55;101699.97;5080306;28;20126;-70
2023/05/16 04:36:52;;;;;;;6.75;0.70;;;;;;;6.87;46.43;101704.13;5082839;27;20126;-72
2023/05/16 04:39:18;;;;;;;14.07;0.85;;;;;;;6.68;46.83;101700.88;5082284;27;20072;-70
2023/05/16 04:41:43;;;;;;;6.32;0.40;;;;;;;6.75;46.75;101706.00;5068316;28;20171;-72
2023/05/16 04:44:10;;;;;;;6.97;0.40;;;;;;;6.00;47.89;101712.72;5082013;27;20032;-71
2023/05/16 04:46:35;;;;;;;7.03;1.90;;;;;;;6.50;47.01;101720.09;5082610;27;20569;-71
2023/05/16 04:49:01;;;;;;;9.27;0.82;;;;;;;6.63;47.15;101717.38;5082119;27;20035;-71
2023/05/16 04:51:26;;;;;;;7.50;0.50;;;;;;;6.72;46.46;101713.84;5082681;27;20576;-72
2023/05/16 04:53:52;;;;;;;8.27;0.82;;;;;;;6.89;46.34;101723.19;5080000;27;20439;-70
2023/05/16 04:56:17;;;;;;;5.35;0.30;;;;;;;6.83;46.02;101718.03;5096100;27;20051;-71
2023/05/16 04:58:43;;;;;;;8.48;0.47;;;;;;;7.03;45.97;101714.38;5082085;27;20747;-70
2023/05/16 05:01:09;;;;;;;2.17;0.20;;;;;;;7.62;44.90;101712.75;5081577;28;20037;-70
2023/05/16 05:03:34;;;;;;;5.93;0.25;;;;;;;8.83;42.00;101707.31;5078547;27;20326;-71
2023/05/16 05:06:00;;;;;;;6.07;0.73;;;;;;;10.30;38.76;101704.91;5080065;27;20043;-71
2023/05/16 05:08:25;;;;;;;3.90;0.30;;;;;;;12.10;35.49;101702.31;5079884;27;20044;-71
2023/05/16 05:10:51;;;;;;;4.95;0.32;;;;;;;12.93;34.13;101700.31;5084060;27;20058;-71
2023/05/16 05:13:17;;;;;;;8.57;0.57;;;;;;;13.45;32.07;101698.34;5080090;27;20827;-71
2023/05/16 05:15:42;;;;;;;3.92;0.30;;;;;;;13.52;31.89;101706.84;5097140;27;20504;-70
2023/05/16 05:18:08;;;;;;;4.45;0.38;;;;;;;13.26;32.11;101705.22;5080951;27;20036;-71
2023/05/16 05:20:33;;;;;;;6.38;0.65;;;;;;;13.51;31.48;101705.94;5078433;28;20138;-72
2023/05/16 05:22:58;;;;;;;7.78;0.20;;;;;;;13.45;31.64;101706.22;5082117;27;20048;-70
2023/05/16 05:25:25;;;;;;;1.42;0.38;;;;;;;13.50;31.58;101709.50;5083937;27;20499;-70
2023/05/16 05:27:50;;;;;;;3.75;0.32;;;;;;;13.37;32.53;101705.66;5080299;27;20031;-71
2023/05/16 05:30:16;;;;;;;6.45;0.60;;;;;;;14.27;30.55;101706.41;5083474;28;20860;-72
2023/05/16 05:32:41;;;;;;;11.27;0.98;;;;;;;12.58;33.44;101699.78;5078897;28;20162;-71
2023/05/16 05:35:07;;;;;;;5.45;0.60;;;;;;;10.37;37.83;101716.91;5081844;27;20040;-70
2023/05/16 05:37:32;;;;;;;13.82;0.90;;;;;;;8.59;42.44;101715.56;5081886;27;20519;-70
2023/05/16 05:39:58;;;;;;;7.55;0.85;;;;;;;8.49;42.90;101728.72;5077719;27;20097;-72
2023/05/16 05:42:23;;;;;;;6.72;0.35;;;;;;;8.02;44.13;101730.38;5085746;28;20035;-72
2023/05/16 05:44:49;;;;;;;11.40;0.77;;;;;;;8.19;44.24;101734.47;5081802;28;20031;-71
2023/05/16 05:47:15;;;;;;;11.82;0.73;;;;;;;8.10;44.29;101738.94;5079362;27;20116;-70
2023/05/16 05:49:40;;;;;;;7.93;0.47;;;;;;;7.81;45.01;101741.97;5097956;27;20274;-70
2023/05/16 05:52:06;;;;;;;4.97;0.50;;;;;;;8.38;44.43;101738.47;5086161;27;20043;-71
2023/05/16 05:54:32;;;;;;;4.60;0.60;;;;;;;9.30;41.46;101726.34;5080810;28;20052;-71
2023/05/16 05:56:57;;;;;;;4.57;0.55;;;;;;;11.25;38.29;101734.56;5078261;28;20035;-71
2023/05/16 05:59:23;;;;;;;7.28;0.50;;;;;;;10.35;38.51;101739.63;5086887;28;20783;-70
2023/05/16 06:01:51;;;;;;;7.35;0.40;;;;;;;9.94;39.89;101738.88;5080455;28;20028;-72
2023/05/16 06:04:20;;;;;;;4.07;0.57;;;;;;;9.49;40.77;101736.38;5078648;28;21034;-72
2023/05/16 06:06:47;;;;;;;11.57;0.55;;;;;;;8.09;43.22;101742.44;5085354;28;20551;-71
2023/05/16 06:09:13;;;;;;;7.43;1.00;;;;;;;8.14;43.68;101751.03;5087001;28;20515;-71
2023/05/16 06:11:40;;;;;;;12.27;1.60;;;;;;;8.19;44.09;101752.69;5078003;28;20062;-71
2023/05/16 06:14:06;;;;;;;8.35;0.50;;;;;;;8.61;43.16;101751.13;5084176;28;20043;-70
2023/05/16 06:16:31;;;;;;;5.88;0.52;;;;;;;9.06;41.69;101748.56;5081067;28;20032;-70
2023/05/16 06:18:57;;;;;;;6.65;0.30;;;;;;;11.00;37.18;101749.28;5072567;28;20040;-70
2023/05/16 06:21:22;;;;;;;3.90;0.30;;;;;;;11.97;34.07;101749.03;5088553;27;20031;-72
2023/05/16 06:23:48;;;;;;;3.58;0.20;;;;;;;12.50;33.62;101746.38;5086685;27;20051;-68
2023/05/16 06:26:14;;;;;;;5.93;0.30;;;;;;;13.07;32.76;101750.53;5089888;27;20031;-68
2023/05/16 06:28:40;;;;;;;5.05;0.45;;;;;;;13.45;31.80;101750.84;5085656;27;20078;-69
2023/05/16 06:31:05;;;;;;;8.30;1.27;;;;;;;12.59;33.12;101753.09;5086443;27;20521;-71
2023/05/16 06:33:31;;;;;;;5.28;0.32;;;;;;;13.31;32.21;101745.25;5083579;27;20043;-69
2023/05/16 06:35:56;;;;;;;8.13;0.98;;;;;;;12.76;33.10;101753.41;5088043;27;20439;-73
2023/05/16 06:38:21;;;;;;;9.75;0.40;;;;;;;10.43;36.77;101762.03;5087211;27;20067;-72
2023/05/16 06:40:48;;;;;;;4.72;0.70;;;;;;;9.36;38.89;101767.94;5084327;27;20031;-72
2023/05/16 06:43:13;;;;;;;7.78;0.50;;;;;;;9.49;39.20;101767.69;5086098;27;20517;-72
2023/05/16 06:45:38;;;;;;;5.18;0.25;;;;;;;10.02;38.40;101760.44;5080908;27;20040;-72
2023/05/16 06:48:06;;;;;;;6.57;0.30;;;;;;;13.01;33.17;101763.88;5084171;27;20039;-70
2023/05/16 06:50:34;;;;;;;10.82;0.57;;;;;;;14.41;30.51;101763.72;5084778;27;20039;-71
2023/05/16 06:52:59;;;;;;;7.78;1.20;;;;;;;16.25;28.11;101756.22;5086121;27;20070;-72
2023/05/16 06:55:25;;;;;;;6.88;0.65;;;;;;;15.91;27.83;101761.34;5080748;27;21484;-71
2023/05/16 06:57:50;;;;;;;5.30;0.65;;;;;;;14.94;28.57;101773.69;5085405;27;20036;-72
2023/05/16 07:00:17;;;;;;;5.20;0.38;;;;;;;12.88;31.26;101770.47;5081124;28;20499;-72
2023/05/16 07:02:42;;;;;;;13.32;0.95;;;;;;;12.44;32.57;101771.03;5082168;27;20044;-70
2023/05/16 07:05:08;;;;;;;6.82;0.60;;;;;;;14.32;30.34;101772.81;5085062;27;20027;-72
2023/05/16 07:07:34;;;;;;;2.03;0.50;;;;;;;15.66;28.35;101766.06;5066521;27;20385;-69
2023/05/16 07:09:59;;;;;;;4.20;0.75;;;;;;;16.55;26.29;101761.72;5087640;27;20020;-70
2023/05/16 07:12:25;;;;;;;7.97;0.77;;;;;;;14.86;28.26;101772.34;5083143;27;20569;-70
2023/05/16 07:14:51;;;;;;;4.30;0.30;;;;;;;14.69;28.76;101778.31;5072314;27;20028;-70
2023/05/16 07:17:16;;;;;;;9.35;0.63;;;;;;;13.92;30.18;101776.22;5081404;27;20039;-69
2023/05/16 07:19:41;;;;;;;5.18;0.35;;;;;;;13.44;31.59;101772.75;5084691;27;20046;-70
2023/05/16 07:22:07;;;;;;;5.85;1.08;;;;;;;12.86;32.39;101785.41;5084065;27;20122;-70
2023/05/16 07:24:33;;;;;;;2.63;0.30;;;;;;;11.54;33.39;101789.59;5083309;27;20031;-69
2023/05/16 07:26:58;;;;;;;8.02;0.30;;;;;;;11.86;33.75;101788.66;5089850;28;20038;-70
2023/05/16 07:29:24;;;;;;;11.48;0.77;;;;;;;13.84;30.65;101786.19;5083687;27;20742;-70
2023/05/16 07:31:49;;;;;;;8.07;0.47;;;;;;;15.42;27.86;101790.03;5087908;27;20408;-70
2023/05/16 07:34:15;;;;;;;6.63;0.20;;;;;;;16.08;27.27;101780.78;5083075;27;20847;-70
2023/05/16 07:36:40;;;;;;;6.82;1.00;;;;;;;16.76;26.83;101786.19;5084877;27;20123;-70
2023/05/16 07:39:06;;;;;;;5.55;0.40;;;;;;;16.05;26.98;101786.22;5086671;27;20059;-71
2023/05/16 07:41:31;;;;;;;4.53;0.50;;;;;;;16.49;26.28;101793.69;5090304;27;20599;-70
2023/05/16 07:43:57;;;;;;;2.80;0.70;;;;;;;13.19;30.94;101800.84;5082615;28;20807;-71
2023/05/16 07:46:22;;;;;;;3.53;1.15;;;;;;;13.50;30.91;101785.66;5083000;27;20385;-68
2023/05/16 07:48:49;;;;;;;6.43;0.47;;;;;;;12.38;32.26;101796.59;5084763;27;20031;-70
2023/05/16 07:51:14;;;;;;;5.40;1.30;;;;;;;11.91;33.04;101804.22;5084521;27;20093;-69
2023/05/16 07:53:40;;;;;;;7.78;0.45;;;;;;;11.34;34.11;101806.72;5086566;27;20047;-70
2023/05/16 07:56:07;;;;;;;8.18;0.95;;;;;;;12.94;32.42;101803.47;5082512;28;20059;-69
2023/05/16 07:58:32;;;;;;;4.53;0.45;;;;;;;13.98;29.51;101799.63;5083769;28;20048;-70
2023/05/16 08:00:58;;;;;;;9.52;0.70;;;;;;;15.32;28.40;101796.63;5085815;27;20055;-70
2023/05/16 08:03:23;;;;;;;7.15;1.20;;;;;;;14.12;30.48;101794.69;5081895;27;20104;-71
2023/05/16 08:05:50;;;;;;;4.65;0.60;;;;;;;13.10;32.57;101802.91;5084066;27;20039;-70
2023/05/16 08:08:16;;;;;;;5.75;1.00;;;;;;;11.57;34.16;101810.44;5079812;28;20042;-70
2023/05/16 08:10:41;;;;;;;10.90;1.05;;;;;;;10.77;35.14;101815.22;5086262;27;20876;-70
2023/05/16 08:13:07;;;;;;;6.15;0.95;;;;;;;11.67;33.84;101806.66;5082834;28;20163;-70
2023/05/16 08:15:32;;;;;;;8.75;1.23;;;;;;;13.22;33.30;101801.59;5082461;28;20434;-70
2023/05/16 08:17:58;;;;;;;7.45;0.98;;;;;;;12.44;34.56;101809.50;5083492;28;20370;-70
2023/05/16 08:20:24;;;;;;;5.70;0.35;;;;;;;10.51;37.65;101814.13;5087516;27;20039;-69
2023/05/16 08:22:50;;;;;;;5.10;0.68;;;;;;;10.66;38.02;101825.09;5083445;27;20120;-72
2023/05/16 08:25:16;;;;;;;3.45;0.28;;;;;;;13.20;33.65;101813.91;5081827;27;20042;-70
2023/05/16 08:27:44;;;;;;;4.65;0.68;;;;;;;14.35;30.98;101819.19;5082080;28;20052;-72
2023/05/16 08:30:10;;;;;;;7.75;0.63;;;;;;;12.96;31.70;101820.91;5086890;27;20045;-69
2023/05/16 08:32:36;;;;;;;4.63;0.30;;;;;;;11.28;34.15;101833.06;5081703;27;20656;-73
2023/05/16 08:35:02;;;;;;;7.15;0.30;;;;;;;11.66;34.30;101820.63;5084514;27;20039;-68
2023/05/16 08:37:28;;;;;;;4.13;0.43;;;;;;;12.91;32.33;101817.56;5082176;27;20059;-70
2023/05/16 08:39:53;;;;;;;5.03;0.60;;;;;;;13.67;31.89;101820.97;5087328;28;20560;-70
2023/05/16 08:42:19;;;;;;;2.08;0.30;;;;;;;14.33;30.35;101813.97;5082627;27;20188;-73
2023/05/16 08:44:45;;;;;;;9.43;0.82;;;;;;;13.67;31.71;101806.09;5084978;27;20038;-70
2023/05/16 08:47:15;;;;;;;8.88;0.43;;;;;;;12.04;34.09;101818.66;5083497;27;20044;-70
2023/05/16 08:49:42;;;;;;;8.65;0.80;;;;;;;12.30;34.24;101809.97;5087646;27;20096;-73
2023/05/16 08:52:11;;;;;;;8.38;0.75;;;;;;;10.41;37.85;101844.00;5080885;27;20127;-70
2023/05/16 08:54:39;;;;;;;5.00;0.25;;;;;;;9.88;39.47;101833.88;5076601;28;20648;-71
2023/05/16 08:57:05;;;;;;;3.85;0.30;;;;;;;9.06;41.07;101839.84;5085058;27;20039;-72
2023/05/16 08:59:31;;;;;;;2.30;0.28;;;;;;;9.14;41.14;101844.91;5078986;27;20241;-70
2023/05/16 09:01:57;;;;;;;6.25;0.47;;;;;;;9.10;41.32;101843.25;5080189;28;20136;-71
2023/05/16 09:04:24;;;;;;;3.85;0.22;;;;;;;11.01;36.55;101840.75;5079920;27;20046;-69
2023/05/16 09:06:51;;;;;;;7.70;0.20;;;;;;;12.46;31.93;101847.88;5084434;28;20035;-71
2023/05/16 09:09:16;;;;;;;0.40;0.10;;;;;;;11.32;35.77;101860.88;5080944;27;20035;-70
2023/05/16 09:11:42;;;;;;;5.93;0.10;;;;;;;9.43;40.57;101849.56;5083955;27;20127;-70
2023/05/16 09:14:07;;;;;;;0.85;0.35;;;;;;;8.50;42.78;101857.28;5078250;28;20074;-70
2023/05/16 09:16:33;;;;;;;4.18;0.10;;;;;;;9.42;40.97;101860.03;5080091;28;20471;-70
2023/05/16 09:19:00;;;;;;;2.47;0.28;;;;;;;10.75;40.84;101853.63;5081504;27;20678;-71
2023/05/16 09:21:33;;;;;;;0.75;0.10;;;;;;;10.71;37.48;101855.47;5082387;27;20580;-70
2023/05/16 09:24:09;;;;;;;2.83;0.30;;;;;;;10.59;37.76;101856.63;5080785;28;20514;-69
2023/05/16 09:26:36;;;;;;;2.33;0.10;;;;;;;10.31;38.19;101852.97;5080834;28;20288;-70
2023/05/16 09:29:10;;;;;;;2.20;0.30;;;;;;;11.29;39.40;101854.88;5081712;28;20595;-69
2023/05/16 09:31:37;;;;;;;1.75;0.20;;;;;;;11.60;37.34;101860.13;5085269;28;20070;-70
2023/05/16 09:34:12;;;;;;;3.28;0.10;;;;;;;11.43;36.28;101843.09;5079607;28;20146;-71
2023/05/16 09:36:38;;;;;;;2.30;0.10;;;;;;;11.68;38.09;101852.88;5079919;28;20042;-71
2023/05/16 09:39:06;;;;;;;2.88;0.28;;;;;;;11.22;36.89;101855.03;5084072;28;20043;-69
2023/05/16 09:41:35;;;;;;;4.32;0.30;;;;;;;12.09;36.41;101842.97;5078893;28;20612;-70
2023/05/16 09:44:05;;;;;;;6.32;0.20;;;;;;;12.14;34.76;101846.31;5082220;28;20039;-71
2023/05/16 09:46:33;;;;;;;4.25;0.57;;;;;;;12.37;34.23;101849.97;5079138;28;20097;-70
2023/05/16 09:48:59;;;;;;;10.23;0.20;;;;;;;12.65;34.38;101845.53;5084212;28;20043;-71
2023/05/16 09:51:25;;;;;;;2.05;0.10;;;;;;;13.62;33.46;101857.91;5079606;28;20038;-70
2023/05/16 09:53:50;;;;;;;4.65;0.20;;;;;;;11.56;34.48;101867.19;5077404;28;20100;-70
2023/05/16 09:56:16;;;;;;;2.58;0.40;;;;;;;10.79;38.94;101876.19;5079819;28;20039;-70
2023/05/16 09:58:43;;;;;;;3.72;0.65;;;;;;;10.19;41.08;101875.88;5080252;28;20134;-72
2023/05/16 10:01:09;;;;;;;3.90;0.80;;;;;;;9.63;42.57;101875.25;5086389;28;20836;-71
2023/05/16 10:03:37;;;;;;;3.15;0.40;;;;;;;9.55;42.84;101878.03;5076953;28;20525;-72
2023/05/16 10:06:04;;;;;;;7.53;0.47;;;;;;;9.28;43.23;101889.00;5082399;28;20035;-68
2023/05/16 10:08:34;;;;;;;6.70;0.60;;;;;;;8.81;44.48;101901.97;5080971;28;20036;-70
2023/05/16 10:11:02;;;;;;;4.88;0.73;;;;;;;7.97;46.61;101885.78;5082721;28;20032;-72
2023/05/16 10:13:29;;;;;;;1.05;0.35;;;;;;;7.65;46.16;101884.44;5079083;28;20035;-70
2023/05/16 10:15:56;;;;;;;6.97;0.30;;;;;;;7.35;46.90;101887.34;5079506;28;20105;-72
2023/05/16 10:18:28;;;;;;;2.78;0.40;;;;;;;8.19;46.92;101877.69;5078405;28;20047;-70
2023/05/16 10:20:56;;;;;;;;;;;;;;;9.54;44.84;101867.63;5082002;28;20032;-70
2023/05/16 10:23:24;;;;;;;11.60;0.55;;;;;;;10.57;42.67;101871.50;5078761;28;19943;-68
2023/05/16 10:25:50;;;;;;;1.90;0.50;;;;;;;11.40;39.39;101866.78;5078534;28;20051;-70
2023/05/16 10:28:16;;;;;;;5.57;0.30;;;;;;;12.16;41.15;101868.06;5068711;28;20483;-71
2023/05/16 10:30:45;;;;;;;11.45;0.70;;;;;;;12.22;39.29;101852.16;5080519;28;20036;-73
2023/05/16 10:33:15;;;;;;;2.17;0.38;;;;;;;11.07;40.27;101867.69;5083688;28;20116;-72
2023/05/16 10:35:42;;;;;;;10.35;0.93;;;;;;;11.85;40.50;101866.38;5078021;28;20114;-72
2023/05/16 10:38:10;;;;;;;10.40;0.43;;;;;;;12.22;38.56;101862.66;5083019;28;20036;-72
2023/05/16 10:40:37;;;;;;;3.35;0.70;;;;;;;12.10;37.95;101855.16;5080576;28;20130;-72
2023/05/16 10:43:05;;;;;;;4.40;0.30;;;;;;;12.70;36.58;101850.66;5077061;28;20043;-72
2023/05/16 10:45:31;;;;;;;7.75;1.63;;;;;;;11.31;37.88;101859.16;5078221;28;20046;-72
2023/05/16 10:48:08;;;;;;;5.03;0.40;;;;;;;10.05;39.83;101851.78;5081659;28;20040;-72
2023/05/16 10:50:37;;;;;;;4.00;0.32;;;;;;;9.52;39.49;101865.06;5080313;28;20028;-72
2023/05/16 10:53:19;;;;;;;2.67;0.22;;;;;;;9.39;39.39;101856.59;5083922;28;20068;-70
2023/05/16 10:55:49;;;;;;;;;;;;;;;9.00;41.56;101875.59;5080576;27;20236;-71
2023/05/16 10:58:23;;;;;;;13.48;1.30;;;;;;;9.22;41.83;101868.25;5078301;28;19923;-72
2023/05/16 11:00:48;;;;;;;10.27;0.45;;;;;;;10.65;41.43;101868.69;5079990;28;20035;-72
2023/05/16 11:03:27;;;;;;;9.52;1.00;;;;;;;11.43;38.90;101866.66;5086300;27;20035;-72
2023/05/16 11:05:58;;;;;;;7.65;0.40;;;;;;;11.56;38.35;101872.44;5084522;27;20122;-73
2023/05/16 11:08:24;;;;;;;7.63;1.17;;;;;;;10.25;39.32;101863.53;5101936;27;20112;-71
2023/05/16 11:10:49;;;;;;;6.80;0.88;;;;;;;10.05;38.38;101869.22;5084911;28;20500;-70
2023/05/16 11:13:23;;;;;;;5.72;0.50;;;;;;;10.72;37.94;101870.25;5082175;27;20055;-72
2023/05/16 11:15:48;;;;;;;3.85;0.60;;;;;;;11.19;36.77;101868.19;5082875;27;20042;-71
2023/05/16 11:18:16;;;;;;;4.43;0.28;;;;;;;10.99;36.48;101873.09;5088982;27;20035;-72
2023/05/16 11:20:41;;;;;;;17.20;1.60;;;;;;;11.50;37.33;101859.50;5082428;27;20111;-72
2023/05/16 11:23:22;;;;;;;13.35;0.45;;;;;;;10.88;38.34;101870.75;5082740;27;20039;-73
2023/05/16 11:25:52;;;;;;;8.07;0.40;;;;;;;12.17;37.73;101866.31;5083783;28;20576;-73
2023/05/16 11:28:19;;;;;;;6.78;0.40;;;;;;;12.37;35.57;101865.69;5084401;27;20032;-71